createdAt,value
2018-05-15T00:00:28.236Z,68.30
2018-05-15T00:02:30.718Z,68.30
2018-05-15T00:04:33.177Z,68.70
2018-05-15T00:06:35.685Z,68.90
2018-05-15T00:08:38.117Z,69.10
2018-05-15T00:10:40.560Z,69.50
2018-05-15T00:12:43.774Z,69.60
2018-05-15T00:14:46.239Z,69.30
2018-05-15T00:16:49.784Z,74.70
2018-05-15T00:20:56.033Z,78.50
2018-05-15T00:22:58.480Z,80.40
2018-05-15T00:25:00.952Z,80.30
2018-05-15T00:27:03.439Z,80.20
2018-05-15T00:29:05.910Z,80.40
2018-05-15T00:31:08.930Z,80.20
2018-05-15T00:33:11.384Z,84.50
2018-05-15T00:35:13.933Z,83.70
2018-05-15T00:37:16.382Z,84.50
2018-05-15T00:39:18.813Z,90.90
2018-05-15T00:41:21.252Z,92.70
2018-05-15T00:43:24.824Z,86.50
2018-05-15T00:45:27.296Z,85.00
2018-05-15T00:47:30.514Z,85.10
2018-05-15T00:49:32.962Z,68.80
2018-05-15T00:51:36.568Z,67.70
2018-05-15T00:53:39.123Z,68.20
2018-05-15T00:55:43.456Z,68.40
2018-05-15T00:57:45.919Z,68.70
2018-05-15T00:59:48.368Z,68.70
2018-05-15T01:01:50.805Z,68.60
2018-05-15T01:03:54.164Z,69.70
2018-05-15T01:05:56.596Z,69.80
2018-05-15T01:07:59.051Z,69.70
2018-05-15T01:10:02.306Z,69.60
2018-05-15T01:12:04.742Z,68.80
2018-05-15T01:14:07.198Z,68.30
2018-05-15T01:16:09.690Z,68.70
2018-05-15T01:18:12.113Z,68.90
2018-05-15T01:20:15.316Z,67.70
2018-05-15T01:22:17.781Z,68.40
2018-05-15T01:24:20.312Z,67.90
2018-05-15T01:26:22.856Z,69.40
2018-05-15T01:28:25.325Z,68.20
2018-05-15T01:30:27.764Z,68.40
2018-05-15T01:32:30.264Z,68.80
2018-05-15T01:34:32.717Z,68.70
2018-05-15T01:36:35.165Z,68.10
2018-05-15T01:38:38.381Z,68.60
2018-05-15T01:40:40.826Z,68.50
2018-05-15T01:42:43.332Z,69.00
2018-05-15T01:44:45.781Z,68.70
2018-05-15T01:46:48.261Z,69.00
2018-05-15T01:48:50.768Z,68.80
2018-05-15T01:50:53.220Z,69.60
2018-05-15T01:52:55.660Z,69.10
2018-05-15T01:54:58.124Z,69.50
2018-05-15T01:57:00.552Z,69.60
2018-05-15T01:59:03.085Z,70.00
2018-05-15T02:01:05.761Z,69.90
2018-05-15T02:03:08.173Z,70.30
2018-05-15T02:05:10.628Z,70.30
2018-05-15T02:07:13.176Z,70.80
2018-05-15T02:09:15.618Z,70.90
2018-05-15T02:11:18.132Z,70.50
2018-05-15T02:13:20.593Z,70.70
2018-05-15T02:15:23.098Z,70.50
2018-05-15T02:17:25.516Z,70.70
2018-05-15T02:19:28.016Z,70.80
2018-05-15T02:21:30.444Z,71.00
2018-05-15T02:23:32.959Z,71.20
2018-05-15T02:25:35.428Z,71.40
2018-05-15T02:27:37.857Z,71.60
2018-05-15T02:29:40.344Z,71.70
2018-05-15T02:31:42.812Z,73.50
2018-05-15T02:33:45.289Z,72.70
2018-05-15T02:35:47.748Z,72.70
2018-05-15T02:37:50.192Z,72.40
2018-05-15T02:39:52.651Z,72.50
2018-05-15T02:41:55.902Z,73.00
2018-05-15T02:43:58.372Z,72.20
2018-05-15T02:46:00.857Z,72.40
2018-05-15T02:48:03.291Z,72.40
2018-05-15T02:50:05.747Z,72.50
2018-05-15T02:52:08.189Z,75.10
2018-05-15T02:54:10.620Z,74.70
2018-05-15T02:56:13.169Z,74.00
2018-05-15T02:58:15.594Z,73.50
2018-05-15T03:00:18.833Z,73.70
2018-05-15T03:02:21.275Z,73.70
2018-05-15T03:04:23.760Z,73.60
2018-05-15T03:06:26.205Z,74.20
2018-05-15T03:08:29.390Z,75.60
2018-05-15T03:10:32.636Z,75.60
2018-05-15T03:12:35.068Z,75.60
2018-05-15T03:14:37.501Z,75.10
2018-05-15T03:16:40.780Z,75.00
2018-05-15T03:18:43.282Z,75.50
2018-05-15T03:20:46.489Z,76.60
2018-05-15T03:22:48.916Z,76.50
2018-05-15T03:24:52.203Z,76.60
2018-05-15T03:26:54.640Z,76.50
2018-05-15T03:28:57.089Z,77.50
2018-05-15T03:30:59.541Z,76.80
2018-05-15T03:33:02.036Z,77.20
2018-05-15T03:35:04.516Z,77.60
2018-05-15T03:37:06.969Z,78.70
2018-05-15T03:39:09.468Z,78.90
2018-05-15T03:41:11.894Z,78.80
2018-05-15T03:43:14.326Z,78.80
2018-05-15T03:45:16.772Z,79.40
2018-05-15T03:47:19.220Z,79.90
2018-05-15T03:49:21.679Z,79.90
2018-05-15T03:51:24.132Z,80.60
2018-05-15T03:53:27.353Z,81.50
2018-05-15T03:55:29.821Z,81.50
2018-05-15T03:57:32.279Z,81.30
2018-05-15T03:59:34.725Z,82.30
2018-05-15T04:01:49.848Z,82.80
2018-05-15T04:04:04.249Z,82.90
2018-05-15T04:06:19.286Z,82.10
2018-05-15T04:08:21.729Z,82.10
2018-05-15T04:10:24.169Z,82.90
2018-05-15T04:12:26.664Z,83.10
2018-05-15T04:14:29.105Z,82.90
2018-05-15T04:16:31.558Z,82.70
2018-05-15T04:18:34.757Z,82.10
2018-05-15T04:20:37.197Z,82.00
2018-05-15T04:22:41.348Z,82.60
2018-05-15T04:24:43.836Z,82.10
2018-05-15T04:26:46.297Z,82.30
2018-05-15T04:28:48.737Z,81.80
2018-05-15T04:30:51.248Z,81.40
2018-05-15T04:32:53.704Z,81.30
2018-05-15T04:34:56.118Z,81.30
2018-05-15T04:36:58.548Z,81.60
2018-05-15T04:39:01.027Z,80.90
2018-05-15T04:41:03.488Z,80.80
2018-05-15T04:43:05.945Z,80.40
2018-05-15T04:45:08.365Z,80.10
2018-05-15T04:47:10.804Z,80.30
2018-05-15T04:49:13.266Z,79.90
2018-05-15T04:51:15.716Z,79.70
2018-05-15T04:53:18.208Z,79.60
2018-05-15T04:55:20.640Z,78.90
2018-05-15T04:57:23.877Z,71.10
2018-05-15T04:59:26.338Z,70.70
2018-05-15T05:01:28.760Z,71.30
2018-05-15T05:03:31.972Z,66.30
2018-05-15T05:05:34.408Z,66.30
2018-05-15T05:07:37.614Z,58.80
2018-05-15T05:09:40.820Z,56.90
2018-05-15T05:11:43.300Z,56.80
2018-05-15T05:13:46.452Z,55.70
2018-05-15T05:15:49.644Z,54.60
2018-05-15T05:17:52.867Z,61.00
2018-05-15T05:19:56.457Z,51.30
2018-05-15T05:21:58.972Z,51.80
2018-05-15T05:24:01.405Z,51.00
2018-05-15T05:26:03.886Z,48.90
2018-05-15T05:28:06.329Z,49.20
2018-05-15T05:30:08.749Z,49.20
2018-05-15T05:32:11.944Z,46.50
2018-05-15T05:34:14.376Z,46.50
2018-05-15T05:36:16.848Z,45.30
2018-05-15T05:38:19.337Z,46.60
2018-05-15T05:40:21.789Z,45.50
2018-05-15T05:42:24.307Z,44.90
2018-05-15T05:44:26.682Z,45.60
2018-05-15T05:46:29.994Z,43.70
2018-05-15T05:48:32.407Z,43.60
2018-05-15T05:50:34.828Z,43.50
2018-05-15T05:52:37.299Z,44.60
2018-05-15T05:54:40.484Z,42.60
2018-05-15T05:56:42.935Z,42.60
2018-05-15T05:58:46.164Z,42.30
2018-05-15T06:00:48.577Z,42.00
2018-05-15T06:02:51.012Z,42.20
2018-05-15T06:04:53.483Z,43.10
2018-05-15T06:06:55.948Z,41.30
2018-05-15T06:08:58.416Z,42.30
2018-05-15T06:11:00.884Z,42.60
2018-05-15T06:13:03.348Z,42.80
2018-05-15T06:15:05.781Z,42.30
2018-05-15T06:17:09.012Z,41.80
2018-05-15T06:19:11.444Z,41.70
2018-05-15T06:21:14.665Z,41.20
2018-05-15T06:23:17.104Z,41.20
2018-05-15T06:25:19.649Z,41.20
2018-05-15T06:27:22.105Z,41.80
2018-05-15T06:29:24.504Z,42.00
2018-05-15T06:31:27.752Z,42.50
2018-05-15T06:33:30.182Z,42.50
2018-05-15T06:35:33.388Z,41.70
2018-05-15T06:37:35.820Z,43.00
2018-05-15T06:39:39.036Z,42.10
2018-05-15T06:41:41.532Z,42.00
2018-05-15T06:43:44.009Z,42.90
2018-05-15T06:45:46.464Z,42.70
2018-05-15T06:47:48.930Z,42.20
2018-05-15T06:49:51.360Z,42.80
2018-05-15T06:51:54.604Z,45.00
2018-05-15T06:53:57.081Z,45.00
2018-05-15T06:55:59.541Z,46.20
2018-05-15T06:58:01.985Z,46.70
2018-05-15T07:00:04.420Z,48.10
2018-05-15T07:02:08.476Z,50.30
2018-05-15T07:04:10.898Z,50.40
2018-05-15T07:06:14.109Z,50.40
2018-05-15T07:08:16.621Z,50.40
2018-05-15T07:10:19.079Z,50.60
2018-05-15T07:12:21.532Z,50.40
2018-05-15T07:14:24.000Z,52.10
2018-05-15T07:16:26.493Z,51.40
2018-05-15T07:18:28.956Z,51.60
2018-05-15T07:20:31.426Z,51.80
2018-05-15T07:22:33.876Z,51.20
2018-05-15T07:24:36.309Z,52.60
2018-05-15T07:26:38.747Z,53.30
2018-05-15T07:28:41.201Z,52.70
2018-05-15T07:30:43.689Z,52.70
2018-05-15T07:32:46.141Z,53.30
2018-05-15T07:34:48.572Z,53.20
2018-05-15T07:36:51.821Z,51.70
2018-05-15T07:38:54.981Z,51.70
2018-05-15T07:40:57.422Z,53.30
2018-05-15T07:43:00.622Z,51.60
2018-05-15T07:45:03.108Z,51.70
2018-05-15T07:47:05.582Z,52.70
2018-05-15T07:49:08.013Z,52.00
2018-05-15T07:51:11.237Z,51.80
2018-05-15T07:53:13.675Z,51.70
2018-05-15T07:55:16.863Z,50.80
2018-05-15T07:57:20.054Z,51.50
2018-05-15T07:59:23.267Z,50.30
2018-05-15T08:01:25.708Z,50.20
2018-05-15T08:03:28.924Z,51.60
2018-05-15T08:05:31.363Z,51.60
2018-05-15T08:07:34.566Z,50.80
2018-05-15T08:09:37.052Z,50.70
2018-05-15T08:11:39.484Z,53.60
2018-05-15T08:13:42.716Z,49.00
2018-05-15T08:15:45.157Z,49.00
2018-05-15T08:17:48.356Z,47.30
2018-05-15T08:19:50.853Z,47.30
2018-05-15T08:21:53.301Z,48.30
2018-05-15T08:23:56.222Z,47.90
2018-05-15T08:25:58.647Z,48.60
2018-05-15T08:28:01.091Z,49.80
2018-05-15T08:30:04.349Z,46.50
2018-05-15T08:32:06.772Z,46.50
2018-05-15T08:34:09.242Z,48.10
2018-05-15T08:36:11.672Z,47.10
2018-05-15T08:38:14.117Z,44.30
2018-05-15T08:40:16.611Z,45.40
2018-05-15T08:42:19.098Z,47.40
2018-05-15T08:44:21.640Z,47.30
2018-05-15T08:46:24.186Z,49.10
2018-05-15T08:48:26.670Z,45.60
2018-05-15T08:50:29.109Z,44.10
2018-05-15T08:52:31.944Z,43.00
2018-05-15T08:54:34.485Z,43.50
2018-05-15T08:56:36.930Z,43.00
2018-05-15T08:58:39.354Z,42.90
2018-05-15T09:00:41.871Z,42.20
2018-05-15T09:02:44.377Z,43.10
2018-05-15T09:04:46.789Z,42.50
2018-05-15T09:06:50.009Z,41.60
2018-05-15T09:08:52.484Z,41.50
2018-05-15T09:10:54.952Z,41.50
2018-05-15T09:12:57.392Z,41.50
2018-05-15T09:15:00.605Z,41.20
2018-05-15T09:17:03.016Z,41.30
2018-05-15T09:19:05.447Z,40.70
2018-05-15T09:21:07.869Z,38.80
2018-05-15T09:23:11.152Z,42.10
2018-05-15T09:25:13.581Z,41.70
2018-05-15T09:27:16.052Z,41.80
2018-05-15T09:29:18.532Z,39.90
2018-05-15T09:31:22.121Z,38.60
2018-05-15T09:33:24.562Z,38.60
2018-05-15T09:35:27.108Z,39.60
2018-05-15T09:37:29.619Z,39.80
2018-05-15T09:39:32.178Z,40.40
2018-05-15T09:41:35.396Z,38.40
2018-05-15T09:43:53.472Z,38.30
2018-05-15T09:45:56.759Z,39.30
2018-05-15T09:47:59.188Z,39.20
2018-05-15T09:50:01.686Z,40.20
2018-05-15T09:52:04.308Z,39.00
2018-05-15T09:54:08.015Z,38.30
2018-05-15T09:56:10.485Z,38.30
2018-05-15T09:58:13.617Z,36.40
2018-05-15T10:00:16.040Z,37.10
2018-05-15T10:02:18.556Z,37.30
2018-05-15T10:04:20.993Z,38.90
2018-05-15T10:06:23.454Z,38.70
2018-05-15T10:08:25.951Z,37.80
2018-05-15T10:10:28.421Z,38.30
2018-05-15T10:12:30.852Z,38.50
2018-05-15T10:14:33.301Z,38.50
2018-05-15T10:16:36.537Z,38.10
2018-05-15T10:18:38.979Z,38.10
2018-05-15T10:20:41.434Z,38.50
2018-05-15T10:22:44.620Z,36.60
2018-05-15T10:24:47.837Z,36.40
2018-05-15T10:26:50.292Z,36.40
2018-05-15T10:28:52.808Z,36.40
2018-05-15T10:30:55.258Z,36.70
2018-05-15T10:32:57.727Z,37.30
2018-05-15T10:35:00.178Z,34.60
2018-05-15T10:37:02.608Z,34.90
2018-05-15T10:39:05.868Z,34.60
2018-05-15T10:41:08.323Z,34.70
2018-05-15T10:43:10.793Z,34.80
2018-05-15T10:45:13.297Z,34.90
2018-05-15T10:47:15.829Z,35.40
2018-05-15T10:49:18.313Z,36.40
2018-05-15T10:51:20.769Z,35.70
2018-05-15T10:53:23.225Z,35.30
2018-05-15T10:55:25.692Z,33.90
2018-05-15T10:57:28.902Z,34.30
2018-05-15T10:59:31.429Z,34.30
2018-05-15T11:01:33.804Z,32.70
2018-05-15T11:03:37.061Z,33.00
2018-05-15T11:05:39.534Z,32.90
2018-05-15T11:07:41.977Z,32.20
2018-05-15T11:09:44.455Z,31.90
2018-05-15T11:11:46.866Z,32.40
2018-05-15T11:13:50.706Z,33.80
2018-05-15T11:15:53.192Z,33.10
2018-05-15T11:17:55.762Z,33.50
2018-05-15T11:20:09.917Z,34.90
2018-05-15T11:22:24.342Z,35.50
2018-05-15T11:24:38.852Z,35.70
2018-05-15T11:26:41.989Z,36.30
2018-05-15T11:28:44.409Z,35.70
2018-05-15T11:30:47.603Z,36.50
2018-05-15T11:32:50.832Z,34.80
2018-05-15T11:34:53.270Z,34.80
2018-05-15T11:36:56.466Z,33.50
2018-05-15T11:38:58.894Z,33.50
2018-05-15T11:41:01.439Z,32.80
2018-05-15T11:43:03.909Z,33.60
2018-05-15T11:45:06.394Z,33.60
2018-05-15T11:47:08.835Z,33.90
2018-05-15T11:49:12.055Z,34.80
2018-05-15T11:51:15.185Z,35.60
2018-05-15T11:53:18.313Z,35.10
2018-05-15T11:55:20.144Z,35.10
2018-05-15T11:57:22.576Z,34.20
2018-05-15T11:59:25.764Z,34.20
2018-05-15T12:01:28.984Z,33.50
2018-05-15T12:03:31.420Z,33.40
2018-05-15T12:05:34.625Z,36.20
2018-05-15T12:07:37.844Z,35.40
2018-05-15T12:09:40.280Z,35.40
2018-05-15T12:11:42.716Z,35.30
2018-05-15T12:13:45.155Z,35.30
2018-05-15T12:15:47.625Z,34.30
2018-05-15T12:17:50.037Z,35.90
2018-05-15T12:19:53.244Z,33.40
2018-05-15T12:21:56.472Z,33.40
2018-05-15T12:23:58.943Z,33.40
2018-05-15T12:26:01.393Z,33.90
2018-05-15T12:28:03.855Z,34.00
2018-05-15T12:30:07.047Z,33.60
2018-05-15T12:32:09.489Z,33.60
2018-05-15T12:34:11.918Z,33.80
2018-05-15T12:36:14.373Z,34.00
2018-05-15T12:38:16.849Z,33.00
2018-05-15T12:40:19.298Z,33.30
2018-05-15T12:42:21.741Z,32.40
2018-05-15T12:44:24.949Z,33.10
2018-05-15T12:46:28.105Z,33.20
2018-05-15T12:48:31.447Z,31.50
2018-05-15T12:50:33.932Z,31.50
2018-05-15T12:52:36.427Z,32.40
2018-05-15T12:54:38.992Z,32.90
2018-05-15T12:56:41.473Z,32.50
2018-05-15T12:58:43.919Z,32.70
2018-05-15T13:00:46.378Z,33.00
2018-05-15T13:02:48.799Z,32.20
2018-05-15T13:04:52.047Z,31.30
2018-05-15T13:06:54.481Z,31.30
2018-05-15T13:08:56.953Z,30.90
2018-05-15T13:10:59.452Z,30.80
2018-05-15T13:13:01.856Z,31.60
2018-05-15T13:15:05.108Z,33.80
2018-05-15T13:17:07.584Z,33.60
2018-05-15T13:19:10.157Z,35.00
2018-05-15T13:21:12.548Z,33.20
2018-05-15T13:23:15.080Z,33.10
2018-05-15T13:25:17.501Z,33.70
2018-05-15T13:27:20.761Z,32.50
2018-05-15T13:29:23.197Z,32.50
2018-05-15T13:31:25.669Z,32.80
2018-05-15T13:33:28.104Z,32.80
2018-05-15T13:35:30.658Z,32.90
2018-05-15T13:37:33.093Z,30.70
2018-05-15T13:39:35.593Z,30.60
2018-05-15T13:41:38.053Z,30.50
2018-05-15T13:43:40.489Z,30.80
2018-05-15T13:45:42.944Z,30.90
2018-05-15T13:47:45.452Z,32.40
2018-05-15T13:49:47.917Z,31.90
2018-05-15T13:51:50.372Z,30.90
2018-05-15T13:53:52.862Z,30.20
2018-05-15T13:55:55.327Z,30.60
2018-05-15T13:57:57.872Z,31.30
2018-05-15T14:00:01.079Z,33.20
2018-05-15T14:02:03.544Z,33.10
2018-05-15T14:04:06.013Z,32.50
2018-05-15T14:06:08.463Z,32.50
2018-05-15T14:08:10.905Z,33.20
2018-05-15T14:10:14.140Z,33.30
2018-05-15T14:12:17.002Z,32.50
2018-05-15T14:14:19.613Z,30.90
2018-05-15T14:16:22.172Z,31.60
2018-05-15T14:18:24.742Z,30.70
2018-05-15T14:20:27.172Z,30.60
2018-05-15T14:22:30.411Z,30.50
2018-05-15T14:24:32.841Z,30.50
2018-05-15T14:26:35.300Z,31.70
2018-05-15T14:28:38.499Z,29.70
2018-05-15T14:30:40.924Z,29.60
2018-05-15T14:32:43.370Z,30.60
2018-05-15T14:34:45.797Z,30.20
2018-05-15T14:36:49.084Z,31.70
2018-05-15T14:38:52.348Z,31.70
2018-05-15T14:40:55.553Z,29.80
2018-05-15T14:43:10.716Z,30.50
2018-05-15T14:45:15.810Z,30.30
2018-05-15T14:47:18.260Z,31.10
2018-05-15T14:49:20.719Z,30.50
2018-05-15T14:51:30.181Z,29.10
2018-05-15T14:53:32.642Z,29.80
2018-05-15T14:55:35.123Z,29.40
2018-05-15T14:57:37.593Z,29.60
2018-05-15T14:59:40.027Z,30.60
2018-05-15T15:01:43.235Z,30.10
2018-05-15T15:03:46.549Z,30.10
2018-05-15T15:05:49.461Z,31.60
2018-05-15T15:07:51.913Z,31.40
2018-05-15T15:09:54.333Z,31.20
2018-05-15T15:11:57.549Z,31.60
2018-05-15T15:14:00.003Z,32.50
2018-05-15T15:16:02.479Z,32.30
2018-05-15T15:18:04.955Z,32.50
2018-05-15T15:20:07.373Z,31.30
2018-05-15T15:22:10.568Z,31.30
2018-05-15T15:24:13.017Z,31.20
2018-05-15T15:26:16.977Z,30.30
2018-05-15T15:28:19.442Z,30.20
2018-05-15T15:30:21.881Z,30.30
2018-05-15T15:32:25.117Z,31.70
2018-05-15T15:34:27.537Z,31.80
2018-05-15T15:36:30.741Z,31.50
2018-05-15T15:38:33.181Z,31.50
2018-05-15T15:40:36.402Z,31.00
2018-05-15T15:42:39.608Z,30.00
2018-05-15T15:44:42.024Z,30.00
2018-05-15T15:46:45.997Z,31.20
2018-05-15T15:48:48.849Z,31.10
2018-05-15T15:50:51.400Z,29.70
2018-05-15T15:52:54.601Z,29.90
2018-05-15T15:54:57.134Z,29.80
2018-05-15T15:56:59.755Z,30.80
2018-05-15T15:59:02.168Z,31.50
2018-05-15T16:01:04.801Z,31.20
2018-05-15T16:03:07.447Z,30.70
2018-05-15T16:05:10.645Z,30.60
2018-05-15T16:07:13.070Z,30.00
2018-05-15T16:09:15.555Z,30.30
2018-05-15T16:11:18.754Z,30.00
2018-05-15T16:13:21.981Z,29.60
2018-05-15T16:15:24.431Z,29.50
2018-05-15T16:17:26.871Z,30.10
2018-05-15T16:19:29.319Z,30.30
2018-05-15T16:21:31.968Z,30.30
2018-05-15T16:23:34.536Z,30.70
2018-05-15T16:25:36.993Z,31.20
2018-05-15T16:27:39.472Z,30.80
2018-05-15T16:29:42.031Z,31.50
2018-05-15T16:31:45.233Z,32.70
2018-05-15T16:33:47.827Z,32.70
2018-05-15T16:35:50.245Z,32.40
2018-05-15T16:37:53.679Z,33.00
2018-05-15T16:39:56.231Z,33.00
2018-05-15T16:41:58.722Z,33.40
2018-05-15T16:44:01.140Z,34.00
2018-05-15T16:46:04.455Z,34.00
2018-05-15T16:48:06.928Z,34.00
2018-05-15T16:50:09.408Z,34.60
2018-05-15T16:52:11.840Z,34.70
2018-05-15T16:54:15.145Z,34.60
2018-05-15T16:56:18.443Z,34.70
2018-05-15T16:58:21.732Z,34.40
2018-05-15T17:00:24.207Z,34.40
2018-05-15T17:02:26.617Z,34.00
2018-05-15T17:04:29.051Z,34.10
2018-05-15T17:06:31.496Z,33.70
2018-05-15T17:08:34.716Z,34.50
2018-05-15T17:10:37.273Z,34.50
2018-05-15T17:12:40.464Z,35.20
2018-05-15T17:14:43.035Z,35.10
2018-05-15T17:16:46.221Z,35.40
2018-05-15T17:18:48.689Z,35.40
2018-05-15T17:20:51.177Z,35.50
2018-05-15T17:22:53.652Z,35.90
2018-05-15T17:24:56.116Z,35.30
2018-05-15T17:26:59.513Z,35.30
2018-05-15T17:29:02.061Z,35.30
2018-05-15T17:31:05.388Z,34.70
2018-05-15T17:33:07.764Z,34.60
2018-05-15T17:35:10.291Z,34.80
2018-05-15T17:37:12.863Z,34.70
2018-05-15T17:39:16.101Z,34.60
2018-05-15T17:41:18.555Z,34.50
2018-05-15T17:43:20.996Z,33.80
2018-05-15T17:45:23.461Z,32.80
2018-05-15T17:47:26.029Z,31.70
2018-05-15T17:49:28.477Z,30.60
2018-05-15T17:51:30.985Z,30.70
2018-05-15T17:53:33.418Z,29.80
2018-05-15T17:55:36.620Z,28.30
2018-05-15T17:57:39.851Z,28.20
2018-05-15T17:59:42.391Z,28.20
2018-05-15T18:01:44.840Z,28.30
2018-05-15T18:03:48.048Z,29.90
2018-05-15T18:05:50.485Z,29.20
2018-05-15T18:07:53.721Z,28.80
2018-05-15T18:09:56.148Z,28.80
2018-05-15T18:11:59.381Z,30.20
2018-05-15T18:14:01.858Z,30.20
2018-05-15T18:16:04.448Z,31.10
2018-05-15T18:18:06.894Z,31.90
2018-05-15T18:20:09.360Z,32.90
2018-05-15T18:22:12.761Z,33.30
2018-05-15T18:24:15.196Z,34.30
2018-05-15T18:26:18.497Z,35.60
2018-05-15T18:28:20.987Z,35.60
2018-05-15T18:30:23.539Z,36.10
2018-05-15T18:32:26.757Z,36.90
2018-05-15T18:34:29.218Z,36.80
2018-05-15T18:36:31.687Z,37.30
2018-05-15T18:38:34.115Z,37.20
2018-05-15T18:40:37.306Z,38.10
2018-05-15T18:42:41.227Z,38.90
2018-05-15T18:44:44.516Z,40.60
2018-05-15T18:46:47.703Z,39.60
2018-05-15T18:48:51.068Z,39.60
2018-05-15T18:50:53.606Z,40.60
2018-05-15T18:52:56.061Z,40.30
2018-05-15T18:54:58.495Z,41.00
2018-05-15T18:57:01.722Z,41.70
2018-05-15T18:59:04.181Z,41.70
2018-05-15T19:01:06.589Z,42.20
2018-05-15T19:03:09.044Z,42.70
2018-05-15T19:05:11.489Z,43.70
2018-05-15T19:07:13.973Z,44.10
2018-05-15T19:09:17.335Z,44.90
2018-05-15T19:11:19.749Z,45.80
2018-05-15T19:13:22.189Z,46.30
2018-05-15T19:15:24.640Z,46.80
2018-05-15T19:17:27.108Z,47.50
2018-05-15T19:19:30.494Z,47.30
2018-05-15T19:21:32.784Z,47.20
2018-05-15T19:23:35.574Z,46.80
2018-05-15T19:25:38.038Z,47.00
2018-05-15T19:27:40.516Z,47.20
2018-05-15T19:29:42.973Z,47.40
2018-05-15T19:31:45.403Z,47.70
2018-05-15T19:33:51.693Z,48.10
2018-05-15T19:35:54.112Z,48.50
2018-05-15T19:37:57.352Z,48.40
2018-05-15T19:39:59.773Z,48.40
2018-05-15T19:42:02.197Z,48.30
2018-05-15T19:44:04.672Z,48.70
2018-05-15T19:46:07.117Z,49.20
2018-05-15T19:48:09.553Z,49.70
2018-05-15T19:50:11.993Z,49.70
2018-05-15T19:52:14.457Z,48.50
2018-05-15T19:54:16.944Z,48.20
2018-05-15T19:56:19.374Z,48.30
2018-05-15T19:58:21.864Z,48.50
2018-05-15T20:00:24.323Z,48.30
2018-05-15T20:02:26.780Z,48.60
2018-05-15T20:04:29.228Z,48.60
2018-05-15T20:06:32.469Z,48.80
2018-05-15T20:08:34.979Z,48.70
2018-05-15T20:10:37.396Z,48.90
2018-05-15T20:12:39.887Z,49.20
2018-05-15T20:14:42.341Z,49.50
2018-05-15T20:16:44.773Z,49.70
2018-05-15T20:18:47.978Z,50.20
2018-05-15T20:20:50.445Z,50.20
2018-05-15T20:22:52.884Z,50.30
2018-05-15T20:24:55.336Z,50.50
2018-05-15T20:26:57.876Z,50.30
2018-05-15T20:29:00.362Z,51.00
2018-05-15T20:31:02.825Z,51.00
2018-05-15T20:33:05.316Z,50.90
2018-05-15T20:35:07.785Z,51.20
2018-05-15T20:37:10.269Z,51.40
2018-05-15T20:39:12.736Z,51.60
2018-05-15T20:41:15.985Z,51.50
2018-05-15T20:43:18.416Z,51.50
2018-05-15T20:45:21.620Z,51.80
2018-05-15T20:47:24.068Z,51.70
2018-05-15T20:49:27.264Z,51.80
2018-05-15T20:51:30.469Z,52.00
2018-05-15T20:53:33.010Z,52.00
2018-05-15T20:55:35.440Z,52.00
2018-05-15T20:57:38.716Z,52.50
2018-05-15T20:59:41.157Z,52.40
2018-05-15T21:01:44.594Z,52.80
2018-05-15T21:03:47.012Z,52.80
2018-05-15T21:05:50.285Z,52.90
2018-05-15T21:07:52.703Z,52.80
2018-05-15T21:09:55.134Z,53.10
2018-05-15T21:11:58.381Z,53.50
2018-05-15T21:14:00.821Z,53.50
2018-05-15T21:16:03.276Z,53.90
2018-05-15T21:18:05.725Z,54.50
2018-05-15T21:20:08.186Z,54.50
2018-05-15T21:22:10.723Z,55.40
2018-05-15T21:24:13.190Z,55.40
2018-05-15T21:26:17.410Z,55.20
2018-05-15T21:28:19.852Z,55.60
2018-05-15T21:30:22.288Z,56.10
2018-05-15T21:32:25.558Z,57.50
2018-05-15T21:34:27.990Z,56.90
2018-05-15T21:36:30.465Z,56.90
2018-05-15T21:38:32.946Z,57.10
2018-05-15T21:40:36.251Z,57.60
2018-05-15T21:42:38.706Z,57.50
2018-05-15T21:44:41.187Z,57.40
2018-05-15T21:46:43.624Z,57.10
2018-05-15T21:48:46.057Z,57.40
2018-05-15T21:50:48.557Z,57.20
2018-05-15T21:52:51.779Z,57.30
2018-05-15T21:54:54.233Z,57.40
2018-05-15T21:56:56.720Z,57.90
2018-05-15T21:58:59.212Z,57.70
2018-05-15T22:01:01.669Z,57.60
2018-05-15T22:03:05.048Z,57.70
2018-05-15T22:05:07.517Z,58.00
2018-05-15T22:07:10.135Z,58.20
2018-05-15T22:09:13.667Z,58.00
2018-05-15T22:11:16.299Z,58.00
2018-05-15T22:13:30.699Z,58.10
2018-05-15T22:15:46.404Z,58.40
2018-05-15T22:18:00.660Z,58.40
2018-05-15T22:20:16.143Z,58.70
2018-05-15T22:22:18.179Z,59.10
2018-05-15T22:24:35.498Z,58.90
2018-05-15T22:26:37.942Z,59.20
2018-05-15T22:28:40.407Z,60.10
2018-05-15T22:30:42.897Z,59.30
2018-05-15T22:32:45.340Z,59.50
2018-05-15T22:34:47.773Z,59.60
2018-05-15T22:36:50.334Z,59.60
2018-05-15T22:38:52.768Z,59.80
2018-05-15T22:40:55.239Z,59.80
2018-05-15T22:42:57.674Z,59.80
2018-05-15T22:45:00.901Z,60.50
2018-05-15T22:47:03.364Z,60.40
2018-05-15T22:49:05.814Z,60.40
2018-05-15T22:51:08.813Z,60.80
2018-05-15T22:53:11.245Z,61.30
2018-05-15T22:55:15.010Z,61.70
2018-05-15T22:57:17.542Z,61.70
2018-05-15T22:59:20.776Z,61.50
2018-05-15T23:01:23.204Z,61.50
2018-05-15T23:03:25.717Z,61.90
2018-05-15T23:05:28.275Z,61.90
2018-05-15T23:07:30.696Z,61.80
2018-05-15T23:09:33.917Z,61.80
2018-05-15T23:11:36.416Z,61.80
2018-05-15T23:13:38.849Z,62.10
2018-05-15T23:15:41.354Z,62.70
2018-05-15T23:17:43.809Z,62.80
2018-05-15T23:19:46.268Z,63.40
2018-05-15T23:21:48.733Z,63.30
2018-05-15T23:23:51.224Z,63.60
2018-05-15T23:25:53.707Z,63.30
2018-05-15T23:27:56.189Z,63.10
2018-05-15T23:29:58.625Z,63.60
2018-05-15T23:32:01.100Z,63.70
2018-05-15T23:34:03.540Z,64.10
2018-05-15T23:36:06.009Z,63.60
2018-05-15T23:38:08.528Z,63.20
2018-05-15T23:40:11.012Z,63.00
2018-05-15T23:42:13.454Z,62.90
2018-05-15T23:44:15.948Z,62.80
2018-05-15T23:46:18.394Z,63.40
2018-05-15T23:48:20.892Z,63.10
2018-05-15T23:50:23.320Z,63.40
2018-05-15T23:52:25.812Z,63.10
2018-05-15T23:54:28.293Z,63.20
2018-05-15T23:56:30.840Z,63.40
2018-05-15T23:58:33.328Z,63.60
